Time;durP1;ratioP1;P1;durP2;ratioP2;P2;SDS_P1;SDS_P2;PMS_P1;PMS_P2;Temp;Humidity;BMP_temperature;BMP_pressure;BME280_temperature;BME280_humidity;BME280_pressure;Samples;Min_cycle;Max_cycle;Signal;HPM_P1;HPM_P2
2022/01/01 00:00:52;;;;;;;50.03;24.38;;;9.30;99.90;;;8.20;100.00;98703.53;4983268;28;20161;-71
2022/01/01 00:03:20;;;;;;;68.18;29.10;;;9.30;99.90;;;8.18;100.00;98708.69;4988432;28;20046;-70
2022/01/01 00:05:48;;;;;;;69.90;24.50;;;9.20;99.90;;;8.13;100.00;98712.25;4985107;28;20427;-71
2022/01/01 00:08:16;;;;;;;57.97;24.55;;;9.20;99.90;;;8.15;100.00;98701.00;4982563;28;20421;-70
2022/01/01 00:10:43;;;;;;;88.93;29.60;;;9.20;99.90;;;8.07;100.00;98701.97;4980691;28;20072;-70
2022/01/01 00:13:15;;;;;;;47.53;22.60;;;9.20;99.90;;;8.25;100.00;98700.84;4985892;28;20483;-71
2022/01/01 00:15:42;;;;;;;67.78;25.30;;;9.20;99.90;;;8.20;100.00;98705.25;4985433;28;20444;-71
2022/01/01 00:18:13;;;;;;;69.90;28.90;;;9.20;99.90;;;8.14;100.00;98709.66;4993798;28;20118;-70
2022/01/01 00:20:40;;;;;;;96.35;30.75;;;9.20;99.90;;;8.11;100.00;98701.91;4982063;28;20133;-70
2022/01/01 00:23:08;;;;;;;102.25;35.25;;;9.20;99.90;;;8.12;100.00;98701.06;4984448;28;20077;-71
2022/01/01 00:25:36;;;;;;;93.53;29.40;;;9.20;99.90;;;8.10;100.00;98704.53;4981524;28;20038;-70
2022/01/01 00:28:05;;;;;;;120.55;33.95;;;9.20;99.90;;;8.13;100.00;98695.00;4984363;28;20136;-71
2022/01/01 00:30:32;;;;;;;104.55;30.73;;;9.20;99.90;;;8.22;100.00;98691.41;4986370;28;20051;-71
2022/01/01 00:33:00;;;;;;;115.18;30.23;;;9.20;99.90;;;8.22;100.00;98703.50;4986212;28;20102;-71
2022/01/01 00:35:27;;;;;;;78.88;25.50;;;9.20;99.90;;;8.27;100.00;98692.19;4985224;28;20074;-70
2022/01/01 00:37:55;;;;;;;125.32;33.15;;;9.20;99.90;;;8.09;100.00;98701.06;4978098;28;20399;-70
2022/01/01 00:40:23;;;;;;;100.35;27.67;;;9.30;99.90;;;8.15;100.00;98690.66;4983844;28;20053;-71
2022/01/01 00:42:51;;;;;;;146.27;32.70;;;9.20;99.90;;;8.22;100.00;98686.25;4989559;28;20422;-70
2022/01/01 00:45:19;;;;;;;165.85;34.40;;;9.20;99.90;;;8.21;100.00;98686.25;4983934;28;20038;-71
2022/01/01 00:47:46;;;;;;;169.52;35.75;;;9.20;99.90;;;8.15;100.00;98679.47;4984366;28;20058;-70
2022/01/01 00:50:14;;;;;;;99.97;27.73;;;9.20;99.90;;;8.25;100.00;98670.66;4981937;28;20109;-71
2022/01/01 00:52:44;;;;;;;156.45;32.70;;;9.20;99.90;;;8.20;100.00;98669.91;4983785;28;20523;-71
2022/01/01 00:55:12;;;;;;;180.25;37.72;;;9.30;99.90;;;8.13;100.00;98673.47;5000586;28;20134;-70
2022/01/01 00:57:39;;;;;;;213.02;41.83;;;9.30;99.90;;;8.15;100.00;98680.31;4987181;28;20042;-70
2022/01/01 01:00:07;;;;;;;113.72;30.55;;;9.30;99.90;;;8.22;100.00;98677.63;4980303;28;20053;-71
2022/01/01 01:02:38;;;;;;;180.20;36.13;;;9.20;99.90;;;8.14;100.00;98676.03;4984346;28;20522;-71
2022/01/01 01:05:06;;;;;;;134.57;31.65;;;9.20;99.90;;;8.24;100.00;98676.72;4980628;28;20126;-71
2022/01/01 01:07:34;;;;;;;127.93;33.88;;;9.30;99.90;;;8.18;100.00;98671.66;4980464;28;20652;-70
2022/01/01 01:10:05;;;;;;;79.53;25.60;;;9.30;99.90;;;8.32;100.00;98667.09;4983646;28;20418;-71
2022/01/01 01:12:40;;;;;;;67.40;27.10;;;9.30;99.90;;;8.29;100.00;98668.91;4982639;28;20054;-71
2022/01/01 01:15:10;;;;;;;74.55;26.45;;;9.20;99.90;;;8.23;100.00;98664.66;4981421;28;20088;-71
2022/01/01 01:17:37;;;;;;;78.22;29.65;;;9.30;99.90;;;8.20;100.00;98669.91;4983890;28;20043;-70
2022/01/01 01:20:05;;;;;;;73.28;27.27;;;9.30;99.90;;;8.23;100.00;98669.00;4988081;28;20061;-71
2022/01/01 01:22:32;;;;;;;53.15;24.15;;;9.30;99.90;;;8.38;100.00;98651.50;4984996;28;20054;-70
2022/01/01 01:25:01;;;;;;;98.45;32.13;;;9.30;99.90;;;8.30;100.00;98660.25;4987110;28;20039;-71
2022/01/01 01:27:29;;;;;;;42.15;23.13;;;9.30;99.90;;;8.38;100.00;98656.66;4980614;28;20065;-71
2022/01/01 01:29:58;;;;;;;56.53;23.50;;;9.40;99.90;;;8.34;100.00;98655.00;4980351;28;20070;-70
2022/01/01 01:32:26;;;;;;;64.40;26.77;;;9.30;99.90;;;8.48;100.00;98664.31;4978506;28;20197;-70
2022/01/01 01:34:54;;;;;;;62.92;28.02;;;9.30;99.90;;;8.52;100.00;98664.22;4983380;28;20089;-71
2022/01/01 01:37:23;;;;;;;69.70;29.20;;;9.40;99.90;;;8.31;100.00;98661.97;4983060;28;20096;-71
2022/01/01 01:39:50;;;;;;;55.20;25.33;;;9.40;99.90;;;8.42;100.00;98657.50;4977591;28;20052;-70
2022/01/01 01:42:18;;;;;;;60.85;26.65;;;9.40;99.90;;;8.35;100.00;98661.91;4980950;28;20066;-71
2022/01/01 01:44:47;;;;;;;45.45;22.70;;;9.50;99.90;;;8.49;100.00;98655.69;4977674;28;20071;-71
2022/01/01 01:47:16;;;;;;;57.72;25.17;;;9.50;99.90;;;8.45;100.00;98659.19;4982073;28;20462;-70
2022/01/01 01:49:46;;;;;;;50.17;24.85;;;9.50;99.90;;;8.55;100.00;98659.03;4983575;28;20121;-71
2022/01/01 01:52:16;;;;;;;72.38;28.85;;;9.40;99.90;;;8.40;100.00;98666.16;4984079;28;20561;-71
2022/01/01 01:54:44;;;;;;;52.33;25.52;;;9.50;99.90;;;8.48;100.00;98659.97;4986145;28;20113;-70
2022/01/01 01:57:12;;;;;;;58.72;25.65;;;9.50;99.90;;;8.48;100.00;98661.72;4983546;28;20542;-70
2022/01/01 01:59:44;;;;;;;56.13;25.40;;;9.50;99.90;;;8.53;100.00;98665.94;4990015;28;20053;-70
2022/01/01 02:02:12;;;;;;;62.28;24.60;;;9.50;99.90;;;8.61;100.00;98670.13;4983514;28;20046;-69
2022/01/01 02:04:40;;;;;;;60.95;25.30;;;9.50;99.90;;;8.61;100.00;98675.31;4988622;28;20054;-69
2022/01/01 02:07:08;;;;;;;70.75;28.58;;;9.50;99.90;;;8.55;100.00;98671.06;4987304;28;20054;-69
2022/01/01 02:09:38;;;;;;;53.30;23.58;;;9.50;99.90;;;8.63;100.00;98669.22;4985049;28;20054;-70
2022/01/01 02:12:08;;;;;;;55.65;23.55;;;9.60;99.90;;;8.67;100.00;98680.41;4982762;28;20085;-69
2022/01/01 02:15:27;;;;;;;43.92;21.90;;;9.60;99.90;;;8.71;100.00;98676.84;4986344;28;20367;-69
2022/01/01 02:17:37;;;;;;;43.08;22.60;;;9.60;99.90;;;8.75;100.00;98671.59;4984083;28;20404;-70
2022/01/01 02:20:13;;;;;;;46.38;24.65;;;9.60;99.90;;;8.72;100.00;98679.41;4987914;28;20076;-70
2022/01/01 02:22:50;;;;;;;55.60;25.30;;;9.60;99.90;;;8.71;100.00;98682.03;4987815;28;20133;-70
2022/01/01 02:25:19;;;;;;;55.55;25.70;;;9.60;99.90;;;8.72;100.00;98681.16;4986392;28;20054;-69
2022/01/01 02:27:48;;;;;;;57.55;25.60;;;9.60;99.90;;;8.74;100.00;98675.06;4987575;28;20073;-70
2022/01/01 02:30:16;;;;;;;44.05;21.77;;;9.60;99.90;;;8.72;100.00;98675.97;4986228;28;20053;-70
2022/01/01 02:32:44;;;;;;;73.57;29.40;;;9.60;99.90;;;8.69;100.00;98681.19;4985451;28;20073;-69
2022/01/01 02:35:15;;;;;;;50.85;23.30;;;9.60;99.90;;;8.77;100.00;98674.16;4987127;28;20112;-71
2022/01/01 02:37:43;;;;;;;57.42;26.50;;;9.60;99.90;;;8.71;100.00;98675.13;4987603;28;20046;-70
2022/01/01 02:40:13;;;;;;;64.40;27.02;;;9.60;99.90;;;8.74;100.00;98671.63;4987312;28;20054;-70
2022/01/01 02:42:42;;;;;;;68.22;26.25;;;9.60;99.90;;;8.75;100.00;98663.81;4983019;28;20514;-69
2022/01/01 02:45:11;;;;;;;76.35;27.90;;;9.70;99.90;;;8.71;100.00;98669.09;4983778;28;20510;-70
2022/01/01 02:47:40;;;;;;;50.80;25.50;;;9.70;99.90;;;8.86;100.00;98657.63;4999864;28;20076;-69
2022/01/01 02:50:09;;;;;;;46.65;24.40;;;9.70;99.90;;;8.82;100.00;98656.81;4984145;28;20594;-70
2022/01/01 02:52:37;;;;;;;46.92;24.02;;;9.70;99.90;;;8.74;100.00;98663.88;4998386;28;20053;-69
2022/01/01 02:55:06;;;;;;;67.70;24.27;;;9.70;99.90;;;8.81;100.00;98657.69;4983128;28;20058;-70
2022/01/01 02:57:35;;;;;;;61.20;27.88;;;9.70;99.90;;;8.70;100.00;98655.28;4986768;28;20073;-70
2022/01/01 03:00:05;;;;;;;56.80;24.90;;;9.60;99.90;;;8.74;100.00;98661.28;4985425;28;20042;-69
2022/01/01 03:02:33;;;;;;;50.92;25.80;;;9.60;99.90;;;8.67;100.00;98663.13;4985441;28;20126;-70
2022/01/01 03:05:01;;;;;;;91.93;32.10;;;9.60;99.90;;;8.57;100.00;98661.56;4984226;28;20059;-70
2022/01/01 03:07:28;;;;;;;71.40;29.83;;;9.60;99.90;;;8.50;100.00;98650.47;4985636;28;20142;-70
2022/01/01 03:09:55;;;;;;;68.97;29.08;;;9.60;99.90;;;8.59;100.00;98652.88;4985805;28;20046;-69
2022/01/01 03:12:23;;;;;;;65.90;26.77;;;9.60;99.90;;;8.56;100.00;98647.78;4985273;28;20514;-69
2022/01/01 03:14:50;;;;;;;100.10;34.55;;;9.60;99.90;;;8.43;100.00;98641.09;4985110;28;20459;-70
2022/01/01 03:17:18;;;;;;;63.22;27.83;;;9.50;99.90;;;8.51;100.00;98633.22;4985011;28;20068;-70
2022/01/01 03:19:49;;;;;;;64.53;27.98;;;9.50;99.90;;;8.46;100.00;98628.13;4983098;28;20046;-69
2022/01/01 03:22:17;;;;;;;55.10;24.77;;;9.50;99.90;;;8.60;100.00;98627.88;4982060;28;20413;-70
2022/01/01 03:24:44;;;;;;;55.53;24.48;;;9.40;99.90;;;8.66;100.00;98626.91;4985706;28;20058;-70
2022/01/01 03:27:18;;;;;;;72.15;29.23;;;9.40;99.90;;;8.53;100.00;98627.13;4986276;28;20074;-69
2022/01/01 03:29:45;;;;;;;77.30;29.65;;;9.50;99.90;;;8.51;100.00;98636.66;4986046;28;20050;-70
2022/01/01 03:32:12;;;;;;;66.05;26.40;;;9.50;99.90;;;8.53;100.00;98640.06;4982560;28;20108;-70
2022/01/01 03:34:44;;;;;;;58.58;26.60;;;9.50;99.90;;;8.48;100.00;98633.25;4984275;28;20069;-70
2022/01/01 03:37:11;;;;;;;63.42;26.52;;;9.50;99.90;;;8.41;100.00;98645.44;4983279;28;20060;-70
2022/01/01 03:39:38;;;;;;;67.32;28.42;;;9.50;99.90;;;8.36;100.00;98647.22;4986212;28;20489;-70
2022/01/01 03:42:06;;;;;;;63.15;27.63;;;9.50;99.90;;;8.54;100.00;98653.84;4984603;28;20133;-69
2022/01/01 03:44:33;;;;;;;67.93;28.63;;;9.50;99.90;;;8.49;100.00;98653.94;4988751;28;20077;-69
2022/01/01 03:47:09;;;;;;;81.35;31.65;;;9.50;99.90;;;8.37;100.00;98651.53;4991035;28;20122;-70
2022/01/01 03:49:38;;;;;;;54.92;25.70;;;9.50;99.90;;;8.58;100.00;98655.53;4983382;28;20061;-70
2022/01/01 03:52:07;;;;;;;57.35;26.25;;;9.50;99.90;;;8.49;100.00;98658.25;4984394;28;20054;-69
2022/01/01 03:54:35;;;;;;;50.05;24.02;;;9.50;99.90;;;8.53;100.00;98653.00;4988300;28;20104;-69
2022/01/01 03:57:03;;;;;;;61.33;26.42;;;9.40;99.90;;;8.57;100.00;98654.66;4988331;28;20061;-69
2022/01/01 03:59:33;;;;;;;57.83;24.98;;;9.50;99.90;;;8.51;100.00;98652.19;4984562;28;20074;-70
2022/01/01 04:02:03;;;;;;;;;;;9.40;99.90;;;8.58;100.00;98655.53;4984484;28;20054;-70
2022/01/01 04:04:31;;;;;;;50.55;23.23;;;9.40;99.90;;;8.54;100.00;98651.28;4986182;28;20299;-70
2022/01/01 04:06:59;;;;;;;44.25;24.33;;;9.40;99.90;;;8.61;100.00;98645.09;4988345;28;20042;-70
2022/01/01 04:09:30;;;;;;;74.13;28.50;;;9.50;99.90;;;8.36;100.00;98650.66;4990290;28;20046;-69
2022/01/01 04:12:06;;;;;;;71.45;26.77;;;9.50;99.90;;;8.52;100.00;98640.94;4986087;28;20125;-70
2022/01/01 04:14:37;;;;;;;64.72;27.42;;;9.50;99.90;;;8.63;100.00;98650.25;4987054;28;20050;-69
2022/01/01 04:17:10;;;;;;;98.88;30.70;;;9.50;99.90;;;8.38;100.00;98646.31;4988830;28;20058;-70
2022/01/01 04:19:44;;;;;;;52.58;25.13;;;9.40;99.90;;;8.38;100.00;98653.22;4989989;28;20078;-69
2022/01/01 04:22:17;;;;;;;73.38;27.38;;;9.50;99.90;;;8.40;100.00;98654.09;4989275;28;20521;-70
2022/01/01 04:24:44;;;;;;;62.92;26.52;;;9.40;99.90;;;8.38;100.00;98653.22;4988473;28;20046;-69
2022/01/01 04:27:26;;;;;;;84.65;27.52;;;9.40;99.90;;;8.31;100.00;98659.38;4987388;28;20434;-69
2022/01/01 04:30:32;;;;;;;109.57;33.00;;;9.40;99.90;;;8.24;100.00;98663.81;4989615;28;20140;-69
2022/01/01 04:33:01;;;;;;;72.88;28.13;;;9.30;99.90;;;8.24;100.00;98662.97;4987103;28;20133;-69
2022/01/01 04:35:39;;;;;;;48.35;23.98;;;9.30;99.90;;;8.36;100.00;98650.66;4985878;28;20050;-70
2022/01/01 04:38:26;;;;;;;52.08;25.58;;;9.30;99.90;;;8.40;100.00;98653.22;4988000;28;20051;-70
2022/01/01 04:41:00;;;;;;;60.78;27.30;;;9.40;99.90;;;8.42;100.00;98654.94;4985361;28;20074;-69
2022/01/01 04:43:49;;;;;;;62.00;27.15;;;9.30;99.90;;;8.32;100.00;98653.31;4990525;28;20077;-70
2022/01/01 04:46:32;;;;;;;48.75;22.92;;;9.40;99.90;;;8.35;100.00;98654.13;4983956;28;20161;-69
2022/01/01 04:49:03;;;;;;;38.65;23.30;;;9.30;99.90;;;8.52;100.00;98653.03;4988088;28;20050;-69
2022/01/01 04:51:38;;;;;;;58.55;26.15;;;9.30;99.90;;;8.53;100.00;98653.00;4983701;28;20050;-70
2022/01/01 04:54:15;;;;;;;43.33;22.60;;;9.30;99.90;;;8.37;100.00;98647.22;4990184;28;20434;-70
2022/01/01 04:56:58;;;;;;;42.17;23.02;;;9.30;99.90;;;8.44;100.00;98647.13;4984153;28;20050;-70
2022/01/01 04:59:27;;;;;;;43.22;23.10;;;9.40;99.90;;;8.50;100.00;98649.59;4989514;28;20053;-70
2022/01/01 05:01:56;;;;;;;33.55;21.50;;;9.40;99.90;;;8.47;100.00;98647.94;4986680;28;20469;-70
2022/01/01 05:04:27;;;;;;;46.10;26.02;;;9.40;99.90;;;8.44;100.00;98655.75;4985326;28;20057;-70
2022/01/01 05:07:01;;;;;;;41.83;24.17;;;9.40;99.90;;;8.50;100.00;98647.88;4988422;28;20061;-70
2022/01/01 05:09:29;;;;;;;44.70;23.85;;;9.40;99.90;;;8.46;100.00;98660.88;4988211;28;20055;-69
2022/01/01 05:11:58;;;;;;;42.22;23.13;;;9.30;99.90;;;8.36;100.00;98649.81;4986002;28;20510;-70
2022/01/01 05:14:26;;;;;;;40.28;21.17;;;9.30;99.90;;;8.37;100.00;98648.94;4987601;28;20434;-70
2022/01/01 05:16:58;;;;;;;33.95;20.63;;;9.30;99.90;;;8.38;100.00;98651.50;4987527;28;20209;-70
2022/01/01 05:19:28;;;;;;;38.15;20.05;;;9.30;99.90;;;8.34;100.00;98651.56;4988237;28;20074;-70
2022/01/01 05:22:04;;;;;;;41.75;21.27;;;9.30;99.90;;;8.24;100.00;98665.53;4987154;28;20046;-69
2022/01/01 05:24:35;;;;;;;52.33;25.02;;;9.30;99.90;;;8.14;100.00;98677.72;4986407;28;20510;-69
2022/01/01 05:27:06;;;;;;;51.40;23.90;;;9.30;99.90;;;8.10;100.00;98673.50;4986229;28;20069;-69
2022/01/01 05:29:33;;;;;;;49.03;23.98;;;9.30;99.90;;;8.01;100.00;98671.06;4986439;28;20084;-69
2022/01/01 05:32:02;;;;;;;59.50;25.77;;;9.30;99.90;;;7.95;100.00;98672.84;4984685;28;20109;-70
2022/01/01 05:34:33;;;;;;;49.60;23.27;;;9.30;99.90;;;8.01;100.00;98666.75;4983438;28;20050;-70
2022/01/01 05:37:08;;;;;;;43.50;22.45;;;9.20;99.90;;;8.06;100.00;98675.28;4987605;28;20126;-69
2022/01/01 05:39:43;;;;;;;87.85;27.88;;;9.20;99.90;;;7.93;100.00;98673.75;4984919;28;20046;-69
2022/01/01 05:42:16;;;;;;;71.72;26.42;;;9.20;99.90;;;7.87;100.00;98672.13;4987071;28;20438;-69
2022/01/01 05:44:47;;;;;;;74.05;24.83;;;9.20;99.90;;;7.89;100.00;98665.19;4987933;28;20387;-69
2022/01/01 05:47:18;;;;;;;64.38;23.50;;;9.20;99.90;;;7.79;100.00;98660.16;4987369;28;20057;-69
2022/01/01 05:49:47;;;;;;;82.97;26.70;;;9.20;99.90;;;7.82;100.00;98649.78;4985256;28;20424;-69
2022/01/01 05:52:15;;;;;;;40.85;19.05;;;9.10;99.90;;;7.89;100.00;98654.84;4986377;28;20073;-69
2022/01/01 05:54:43;;;;;;;55.90;23.13;;;9.00;99.90;;;7.93;100.00;98643.56;4982567;28;20479;-70
2022/01/01 05:57:10;;;;;;;45.08;20.10;;;9.00;99.90;;;8.00;100.00;98644.34;4988679;28;20085;-70
2022/01/01 05:59:42;;;;;;;72.18;18.40;;;9.00;99.90;;;7.95;100.00;98640.97;4986001;28;20388;-69
2022/01/01 06:02:14;;;;;;;115.97;19.90;;;9.00;99.90;;;7.97;100.00;98642.66;4986110;28;20489;-70
2022/01/01 06:04:42;;;;;;;165.88;28.02;;;9.00;99.90;;;7.80;100.00;98642.06;4985816;28;20042;-69
2022/01/01 06:07:14;;;;;;;63.72;19.17;;;8.90;99.90;;;7.90;100.00;98641.03;4987034;28;20515;-70
2022/01/01 06:09:45;;;;;;;88.75;23.35;;;8.90;99.90;;;7.83;100.00;98643.75;4983404;28;20510;-70
2022/01/01 06:12:19;;;;;;;231.30;24.65;;;8.80;99.90;;;7.63;100.00;98649.19;4982650;28;20050;-70
2022/01/01 06:14:55;;;;;;;123.55;21.10;;;8.90;99.90;;;7.67;100.00;98645.69;4984038;28;20096;-69
2022/01/01 06:17:30;;;;;;;73.13;17.88;;;8.80;99.90;;;7.89;100.00;98630.72;4985716;28;20402;-69
2022/01/01 06:20:03;;;;;;;149.63;22.60;;;8.80;99.90;;;7.79;100.00;98617.06;4987216;28;20414;-69
2022/01/01 06:22:56;;;;;;;242.60;22.60;;;8.80;99.90;;;7.82;100.00;98621.34;4985309;28;20054;-69
2022/01/01 06:25:23;;;;;;;108.68;20.75;;;8.80;99.90;;;7.86;100.00;98621.28;4982130;28;20125;-70
2022/01/01 06:27:55;;;;;;;119.78;21.33;;;8.80;99.90;;;7.82;100.00;98635.13;4985064;28;20046;-69
2022/01/01 06:30:24;;;;;;;246.60;26.25;;;8.80;99.90;;;7.63;100.00;98641.44;4983375;28;20058;-69
2022/01/01 06:32:53;;;;;;;351.65;33.17;;;8.80;99.90;;;7.67;100.00;98638.78;4983603;28;20188;-70
2022/01/01 06:35:21;;;;;;;274.65;30.63;;;8.80;99.90;;;7.64;100.00;98643.13;4985034;28;20501;-70
2022/01/01 06:37:55;;;;;;;217.43;29.00;;;8.80;99.90;;;7.67;100.00;98640.53;4987541;28;20106;-69
2022/01/01 06:40:22;;;;;;;84.13;21.38;;;8.80;99.90;;;7.68;100.00;98635.31;4985741;28;20073;-70
2022/01/01 06:42:54;;;;;;;73.88;17.83;;;8.80;99.90;;;7.64;100.00;98644.00;4988626;28;20050;-69
2022/01/01 06:45:21;;;;;;;114.55;20.73;;;8.80;99.90;;;7.73;100.00;98635.25;4985459;28;20042;-69
2022/01/01 06:47:52;;;;;;;101.85;19.20;;;8.80;99.90;;;7.83;100.00;98643.75;4985362;28;20042;-70
2022/01/01 06:50:23;;;;;;;75.20;19.10;;;8.80;99.90;;;7.90;100.00;98653.97;4983211;28;20458;-69
2022/01/01 06:52:53;;;;;;;140.00;21.55;;;8.90;99.90;;;7.84;100.00;98660.94;4985337;28;20050;-70
2022/01/01 06:55:22;;;;;;;49.17;14.65;;;8.80;99.90;;;7.97;100.00;98650.41;4987584;28;20427;-69
2022/01/01 06:57:50;;;;;;;65.68;15.43;;;8.90;99.90;;;8.01;100.00;98652.97;4985604;28;20042;-69
2022/01/01 07:00:20;;;;;;;45.22;14.63;;;8.90;99.90;;;8.05;100.00;98658.06;4984819;28;20043;-69
2022/01/01 07:02:53;;;;;;;104.00;19.00;;;9.00;99.90;;;8.03;100.00;98654.66;4984037;28;20049;-69
2022/01/01 07:05:23;;;;;;;131.93;22.90;;;9.00;99.90;;;7.94;100.00;98657.38;4986921;28;20077;-69
2022/01/01 07:07:50;;;;;;;67.18;15.65;;;9.00;99.90;;;8.03;100.00;98662.41;4985575;28;20084;-70
2022/01/01 07:10:18;;;;;;;65.80;16.42;;;9.00;99.90;;;8.03;100.00;98667.56;4985014;28;20050;-70
2022/01/01 07:12:49;;;;;;;151.25;24.33;;;9.00;99.90;;;7.98;100.00;98666.75;4983891;28;20137;-70
2022/01/01 07:15:18;;;;;;;65.50;19.25;;;9.00;99.90;;;7.94;100.00;98663.38;4986508;28;20709;-70
2022/01/01 07:17:51;;;;;;;33.55;16.95;;;9.00;99.90;;;7.97;100.00;98673.69;4989493;28;20062;-69
2022/01/01 07:20:19;;;;;;;68.95;22.38;;;9.00;99.90;;;7.95;100.00;98672.00;4990665;28;20093;-70
2022/01/01 07:22:53;;;;;;;65.63;21.40;;;9.10;99.90;;;7.89;100.00;98672.94;4990443;28;20074;-70
2022/01/01 07:25:20;;;;;;;50.30;19.75;;;9.10;99.90;;;7.96;100.00;98676.31;4984376;28;20042;-69
2022/01/01 07:27:54;;;;;;;50.22;19.77;;;9.10;99.90;;;7.93;100.00;98689.25;4988437;28;20042;-69
2022/01/01 07:30:26;;;;;;;46.50;19.42;;;9.10;99.90;;;8.03;100.00;98689.97;4991649;28;20413;-70
2022/01/01 07:32:55;;;;;;;38.15;16.45;;;9.10;99.90;;;8.09;100.00;98695.06;4986835;28;20112;-69
2022/01/01 07:35:23;;;;;;;37.17;17.80;;;9.10;99.90;;;8.09;100.00;98700.22;4987205;28;20073;-70
2022/01/01 07:37:52;;;;;;;28.90;15.35;;;9.10;99.90;;;8.10;100.00;98700.22;4989162;28;20129;-70
2022/01/01 07:40:21;;;;;;;29.40;14.30;;;9.20;99.90;;;8.12;100.00;98707.97;4987719;28;20371;-69
2022/01/01 07:42:48;;;;;;;30.63;15.77;;;9.20;99.90;;;8.11;100.00;98711.41;4990512;28;20046;-70
2022/01/01 07:45:19;;;;;;;29.85;15.27;;;9.20;99.90;;;8.30;100.00;98714.56;4983701;28;20054;-70
2022/01/01 07:47:50;;;;;;;27.02;15.10;;;9.20;99.90;;;8.33;100.00;98720.56;4986849;28;20122;-70
2022/01/01 07:50:20;;;;;;;32.35;16.45;;;9.20;99.90;;;8.16;100.00;98723.41;4973000;28;20126;-70
2022/01/01 07:52:47;;;;;;;25.50;13.52;;;9.20;99.90;;;8.34;100.00;98726.59;4990465;28;20280;-70
2022/01/01 07:55:16;;;;;;;20.90;12.68;;;9.30;99.90;;;8.35;100.00;98720.56;4988318;28;20064;-70
2022/01/01 07:57:45;;;;;;;25.20;14.07;;;9.30;99.90;;;8.40;100.00;98726.53;4985972;28;20227;-69
2022/01/01 08:00:13;;;;;;;26.35;12.80;;;9.30;99.90;;;8.32;100.00;98723.16;4987982;28;20521;-70
2022/01/01 08:02:45;;;;;;;26.27;13.55;;;9.30;99.90;;;8.31;100.00;98716.28;4990680;28;20133;-70
2022/01/01 08:05:18;;;;;;;24.90;13.70;;;9.30;99.90;;;8.42;100.00;98709.25;4987571;28;20085;-70
2022/01/01 08:07:48;;;;;;;24.05;14.32;;;9.40;99.90;;;8.43;100.00;98713.53;4990938;28;20492;-70
2022/01/01 08:10:37;;;;;;;28.30;14.57;;;9.40;99.90;;;8.48;100.00;98719.50;4986973;28;20061;-70
2022/01/01 08:13:07;;;;;;;55.78;27.55;;;9.40;99.90;;;8.47;100.00;98714.34;4986138;28;20564;-70
2022/01/01 08:15:35;;;;;;;39.03;20.40;;;9.50;99.90;;;8.49;100.00;98715.19;4989496;28;20054;-69
2022/01/01 08:18:05;;;;;;;21.25;13.35;;;9.50;99.90;;;8.56;100.00;98714.22;4984668;28;20057;-70
2022/01/01 08:20:38;;;;;;;37.95;19.67;;;9.50;99.90;;;8.46;100.00;98716.09;4986102;28;20049;-69
2022/01/01 08:23:06;;;;;;;23.13;13.63;;;9.60;99.90;;;8.29;100.00;98713.72;4987053;28;20169;-69
2022/01/01 08:25:34;;;;;;;24.38;14.20;;;9.60;99.90;;;8.52;100.00;98715.13;4984411;28;20047;-70
2022/01/01 08:28:07;;;;;;;29.27;17.13;;;9.70;99.90;;;8.43;100.00;98720.44;4988179;28;20054;-70
2022/01/01 08:30:36;;;;;;;22.58;12.50;;;9.70;99.90;;;8.55;100.00;98713.38;4983666;28;20046;-69
2022/01/01 08:33:04;;;;;;;24.33;11.77;;;9.70;99.90;;;8.67;100.00;98709.72;4985867;28;20182;-69
2022/01/01 08:35:37;;;;;;;27.65;13.25;;;9.70;99.90;;;8.81;100.00;98713.81;4981075;28;20050;-70
2022/01/01 08:38:05;;;;;;;32.25;16.48;;;9.60;99.90;;;8.57;100.00;98714.16;4986896;28;20435;-70
2022/01/01 08:40:35;;;;;;;38.15;17.05;;;9.70;99.90;;;8.46;100.00;98715.22;4986148;28;20047;-70
2022/01/01 08:43:04;;;;;;;20.80;12.27;;;9.80;99.90;;;8.61;100.00;98714.97;4987135;28;20072;-70
2022/01/01 08:45:37;;;;;;;18.70;10.50;;;9.80;99.90;;;8.66;100.00;98710.56;4990502;28;20112;-69
2022/01/01 08:48:06;;;;;;;28.20;12.75;;;9.80;99.90;;;8.86;100.00;98710.25;4983451;28;20128;-70
2022/01/01 08:50:35;;;;;;;32.97;17.70;;;9.80;99.90;;;8.85;100.00;98715.44;4986189;28;20053;-70
2022/01/01 08:53:03;;;;;;;34.15;19.23;;;9.80;99.90;;;8.78;100.00;98707.81;4969204;28;20058;-70
2022/01/01 08:55:35;;;;;;;20.88;12.73;;;9.90;99.90;;;8.77;100.00;98710.41;4989528;28;20162;-70
2022/01/01 08:58:02;;;;;;;54.47;28.67;;;10.00;99.90;;;8.85;100.00;98710.25;4989483;28;20442;-69
2022/01/01 09:00:51;;;;;;;19.33;10.73;;;10.00;99.90;;;9.15;100.00;98694.19;4984845;28;20050;-70
2022/01/01 09:03:22;;;;;;;16.77;9.07;;;10.10;99.90;;;9.13;100.00;98698.53;4988039;28;20047;-69
2022/01/01 09:05:50;;;;;;;18.92;9.65;;;10.10;99.90;;;9.30;100.00;98698.19;4988172;28;20562;-70
2022/01/01 09:08:38;;;;;;;21.03;9.60;;;10.20;99.90;;;9.27;100.00;98694.81;4988389;28;20145;-70
2022/01/01 09:11:10;;;;;;;16.02;7.68;;;10.30;99.90;;;9.36;100.00;98692.91;4982336;28;20149;-69
2022/01/01 09:13:41;;;;;;;18.73;10.50;;;10.40;99.90;;;9.52;100.00;98697.78;4986823;28;20137;-70
2022/01/01 09:16:16;;;;;;;16.00;7.03;;;10.50;99.90;;;9.33;100.00;98692.13;4986542;28;20062;-69
2022/01/01 09:18:47;;;;;;;16.08;7.47;;;10.60;99.90;;;9.37;100.00;98694.63;4990165;28;20062;-70
2022/01/01 09:21:17;;;;;;;20.88;10.63;;;10.60;99.90;;;9.33;100.00;98692.97;4984778;28;20046;-70
2022/01/01 09:23:46;;;;;;;17.70;9.75;;;10.60;99.90;;;9.42;100.00;98690.19;4990538;28;20050;-69
2022/01/01 09:26:14;;;;;;;19.67;7.85;;;10.80;99.90;;;9.49;100.00;98696.13;4986720;28;20047;-69
2022/01/01 09:28:43;;;;;;;18.08;7.63;;;10.80;99.90;;;9.62;100.00;98687.22;4987434;28;20042;-70
2022/01/01 09:31:10;;;;;;;12.88;6.95;;;10.80;99.90;;;9.63;100.00;98693.25;4986194;28;20136;-70
2022/01/01 09:33:39;;;;;;;16.95;7.18;;;10.80;99.90;;;9.53;100.00;98689.97;4986200;28;20504;-70
2022/01/01 09:36:09;;;;;;;11.35;7.30;;;10.80;99.90;;;9.43;100.00;98683.28;4986725;28;20145;-70
2022/01/01 09:38:37;;;;;;;13.50;6.07;;;10.80;99.90;;;9.63;100.00;98690.66;4983811;28;20081;-70
2022/01/01 09:41:09;;;;;;;11.93;7.72;;;10.80;99.90;;;9.51;100.00;98693.47;4988055;28;20137;-70
2022/01/01 09:43:39;;;;;;;19.65;7.57;;;10.90;99.90;;;9.51;100.00;98698.66;4986045;28;20053;-70
2022/01/01 09:46:10;;;;;;;15.90;8.57;;;10.90;99.90;;;9.46;100.00;98697.91;4982750;28;20137;-70
2022/01/01 09:48:38;;;;;;;12.88;7.50;;;10.90;99.90;;;9.71;100.00;98690.47;4985754;28;20116;-70
2022/01/01 09:51:08;;;;;;;13.35;7.45;;;10.90;99.90;;;9.46;100.00;98687.53;4984844;28;20058;-70
2022/01/01 09:53:38;;;;;;;11.15;6.75;;;10.90;99.90;;;9.78;100.00;98689.44;4987460;28;20046;-70
2022/01/01 09:56:06;;;;;;;15.65;7.18;;;11.00;99.90;;;9.81;100.00;98685.06;4986633;28;20050;-69
2022/01/01 09:58:37;;;;;;;16.17;6.88;;;10.90;99.90;;;9.94;100.00;98680.44;4989366;28;20188;-69
2022/01/01 10:01:07;;;;;;;14.02;6.90;;;11.00;99.90;;;9.91;100.00;98685.72;4985774;28;20046;-70
2022/01/01 10:03:44;;;;;;;17.52;6.95;;;11.00;99.90;;;9.62;100.00;98687.22;4984349;28;20884;-69
2022/01/01 10:06:21;;;;;;;14.40;6.82;;;11.10;99.90;;;9.64;100.00;98677.63;4982518;28;20490;-70
2022/01/01 10:08:59;;;;;;;14.20;6.05;;;11.10;99.90;;;9.88;100.00;98685.78;4985714;28;20050;-70
2022/01/01 10:11:30;;;;;;;12.43;6.20;;;11.20;99.90;;;9.90;100.00;98686.59;4985662;28;20253;-69
2022/01/01 10:13:57;;;;;;;12.80;6.25;;;11.30;99.90;;;9.89;100.00;98692.66;4986416;28;20109;-70
2022/01/01 10:16:26;;;;;;;13.75;6.18;;;11.40;99.90;;;10.08;100.00;98681.88;4982348;28;20062;-69
2022/01/01 10:18:54;;;;;;;14.90;5.60;;;11.40;99.90;;;10.25;100.00;98687.53;4983805;28;20133;-70
2022/01/01 10:21:31;;;;;;;10.48;5.57;;;11.50;99.90;;;10.36;100.00;98682.13;4986579;28;20411;-70
2022/01/01 10:24:01;;;;;;;11.65;6.38;;;11.60;99.90;;;10.01;100.00;98678.56;4985578;28;20526;-69
2022/01/01 10:29:18;;;;;;;14.18;6.15;;;11.80;99.90;;;10.27;100.00;98677.97;4988593;28;20511;-71